Aérodrome :
LOGIN :

S'inscrire | Disclaimer

   EN    FR    IT 

 










Légende :    VFR   VFR Marginal   IFR   IFR Intensif   IFR Très Intensif
Visi : 
Plafond : 
>= 8 km
>= 3000ft
5 à 8 km
1000 à 3000 ft
1500m à 5 km
500 à 1000 ft
800 à 1500m
200 à 500 ft
< 800m
< 200 ft
Symboles :   Orages  Brouillard  Fortes neiges  Fortes précipitations  Vent > 20 kt
SIGMETs :   Divers  Orages  Givrage  Turbulence  Onde Orograph.  Cendres Volcan.







- Altitude de l'aérodrome : 72 ft
- Code IATA : UDE


EHVK - Volkel Airbase

DERNIER METAR :
  • 190555Z AUTO VRB02KT 9999 FEW035 BKN042 OVC047 10/08 Q1030 BLU

METARs EXPIRÉS :
  • 190525Z AUTO 33003KT 270V360 9999 OVC044 10/08 Q1029 BLU
  • 190455Z AUTO 32003KT 9999 FEW040 BKN044 OVC049 10/08 Q1029 BLU
  • 190425Z AUTO 32001KT 9999 SCT040 OVC045 09/08 Q1029 BLU
  • 190355Z AUTO VRB02KT 9999 BKN042 OVC046 09/08 Q1029 BLU
  • 190325Z AUTO 00000KT 9999 OVC047 09/08 Q1029 BLU

TAF TAF EHVK
Valide du 19 à 05h jusqu'au 19 à 17h UTC


190413Z 1905/1917 VRB01KT 9999 BKN048
BECMG 1911/1913 02007KT
Pas de NOTAMs connus pour ce terrain.



MET'MAP, la Météo Aéronautique d'un coup d'oeil ! - Copyright ORBIFLY Décembre 2007 - Disclaimer

ORBIFLY MET'MAP TEAM :

Programmation & Développement : Alexandra Zaïnal
Conception & Développement : Baudouin d'Aumeries
Co-Programmation & Développement : Marc-Olivier Méhu
Soutien technique & logistique : Manuel Goepfert

Contact : metmap@orbifly.com




SOURCES & CREDITS :

   NOAA